createdAt,value
2023-03-04T00:00:35.462Z,568.9
2023-03-04T00:01:37.963Z,568.6
2023-03-04T00:02:40.233Z,568.5
2023-03-04T00:03:42.563Z,568.6
2023-03-04T00:04:44.556Z,568.6
2023-03-04T00:05:47.125Z,568.5
2023-03-04T00:06:49.647Z,568.2
2023-03-04T00:07:51.601Z,568.3
2023-03-04T00:08:54.154Z,567.9
2023-03-04T00:09:56.659Z,568.1
2023-03-04T00:10:59.178Z,568
2023-03-04T00:12:01.722Z,568.3
2023-03-04T00:13:04.227Z,568
2023-03-04T00:14:06.737Z,567.8
2023-03-04T00:15:09.265Z,568.3
2023-03-04T00:16:12.145Z,568.6
2023-03-04T00:17:14.716Z,568.5
2023-03-04T00:18:17.208Z,568.4
2023-03-04T00:19:19.774Z,568
2023-03-04T00:20:21.502Z,568.4
2023-03-04T00:21:23.747Z,568.4
2023-03-04T00:22:26.309Z,568.2
2023-03-04T00:23:28.878Z,568.1
2023-03-04T00:24:31.403Z,568.6
2023-03-04T00:25:34.164Z,567.6
2023-03-04T00:26:36.677Z,567.7
2023-03-04T00:27:38.950Z,568.1
2023-03-04T00:28:41.215Z,568.2
2023-03-04T00:29:43.194Z,568.2
2023-03-04T00:30:45.432Z,568
2023-03-04T00:31:48.303Z,568.1
2023-03-04T00:32:50.850Z,568
2023-03-04T00:33:53.089Z,567.3
2023-03-04T00:34:55.795Z,567.8
2023-03-04T00:35:58.625Z,568.1
2023-03-04T00:37:01.148Z,567.9
2023-03-04T00:38:03.367Z,568
2023-03-04T00:39:05.931Z,568
2023-03-04T00:40:08.489Z,568
2023-03-04T00:41:10.724Z,568
2023-03-04T00:42:12.680Z,568
2023-03-04T00:43:14.894Z,568.1
2023-03-04T00:44:17.148Z,567.6
2023-03-04T00:45:19.681Z,567.9
2023-03-04T00:46:22.300Z,567.9
2023-03-04T00:47:24.852Z,567.6
2023-03-04T00:48:27.064Z,567.4
2023-03-04T00:49:29.591Z,567.5
2023-03-04T00:50:31.606Z,567.6
2023-03-04T00:51:34.134Z,567.8
2023-03-04T00:52:36.624Z,567.8
2023-03-04T00:53:39.116Z,567.9
2023-03-04T00:54:41.663Z,568
2023-03-04T00:55:44.158Z,568.1
2023-03-04T00:56:46.400Z,567.9
2023-03-04T00:57:48.900Z,567.6
2023-03-04T00:58:51.419Z,568
2023-03-04T00:59:53.672Z,567.9
2023-03-04T01:00:56.160Z,568
2023-03-04T01:01:58.665Z,568.3
2023-03-04T01:03:00.904Z,568.2
2023-03-04T01:04:03.396Z,568.3
2023-03-04T01:05:05.888Z,568.3
2023-03-04T01:06:07.893Z,568.7
2023-03-04T01:07:10.114Z,568.7
2023-03-04T01:08:12.339Z,568.9
2023-03-04T01:09:14.821Z,568.7
2023-03-04T01:10:17.038Z,568.8
2023-03-04T01:11:19.253Z,569.5
2023-03-04T01:12:21.779Z,568.7
2023-03-04T01:13:23.999Z,569.6
2023-03-04T01:14:26.510Z,569.4
2023-03-04T01:15:29.010Z,569.4
2023-03-04T01:16:31.693Z,569.6
2023-03-04T01:17:34.230Z,569.5
2023-03-04T01:18:36.798Z,569.8
2023-03-04T01:19:39.054Z,569.7
2023-03-04T01:20:41.537Z,569.8
2023-03-04T01:21:44.103Z,569.7
2023-03-04T01:22:46.114Z,569.7
2023-03-04T01:23:48.313Z,570.3
2023-03-04T01:24:50.820Z,570
2023-03-04T01:25:53.341Z,570.1
2023-03-04T01:26:55.830Z,570.2
2023-03-04T01:27:58.181Z,570
2023-03-04T01:29:00.669Z,570
2023-03-04T01:30:03.205Z,569.9
2023-03-04T01:31:05.975Z,570
2023-03-04T01:32:08.748Z,569.9
2023-03-04T01:33:11.274Z,570.2
2023-03-04T01:34:13.336Z,570.5
2023-03-04T01:35:15.841Z,570.6
2023-03-04T01:36:18.339Z,570.4
2023-03-04T01:37:21.082Z,570.6
2023-03-04T01:38:23.328Z,570.4
2023-03-04T01:39:25.577Z,570.6
2023-03-04T01:40:27.491Z,570.7
2023-03-04T01:41:29.711Z,570.9
2023-03-04T01:42:32.226Z,571.2
2023-03-04T01:43:34.758Z,571.2
2023-03-04T01:44:37.286Z,570.9
2023-03-04T01:46:44.816Z,571.6
2023-03-04T01:47:47.046Z,571.6
2023-03-04T01:48:49.643Z,571.6
2023-03-04T01:49:51.337Z,571.3
2023-03-04T01:50:53.820Z,571.8
2023-03-04T01:51:56.320Z,571.9
2023-03-04T01:52:58.885Z,572.1
2023-03-04T01:54:01.403Z,572.1
2023-03-04T01:55:03.900Z,572.2
2023-03-04T01:56:06.400Z,571.6
2023-03-04T01:57:08.899Z,572.2
2023-03-04T01:58:11.397Z,572.2
2023-03-04T01:59:13.924Z,572.2
2023-03-04T02:00:16.428Z,572.2
2023-03-04T02:01:18.548Z,572.3
2023-03-04T02:02:20.765Z,572.5
2023-03-04T02:03:22.722Z,573
2023-03-04T02:04:25.786Z,572.5
2023-03-04T02:05:28.765Z,572.9
2023-03-04T02:06:31.310Z,573
2023-03-04T02:07:33.517Z,573
2023-03-04T02:08:36.086Z,573
2023-03-04T02:09:38.355Z,573.1
2023-03-04T02:10:40.588Z,573.5
2023-03-04T02:11:42.840Z,573.4
2023-03-04T02:12:45.343Z,573.4
2023-03-04T02:13:47.283Z,573.7
2023-03-04T02:14:49.822Z,573.9
2023-03-04T02:15:52.572Z,574.1
2023-03-04T02:16:55.131Z,573.8
2023-03-04T02:17:57.383Z,574.4
2023-03-04T02:18:59.617Z,574.1
2023-03-04T02:20:01.573Z,574.7
2023-03-04T02:21:04.103Z,574.4
2023-03-04T02:22:06.620Z,574.5
2023-03-04T02:23:08.857Z,574.6
2023-03-04T02:24:11.414Z,574.6
2023-03-04T02:25:13.946Z,574.4
2023-03-04T02:26:16.164Z,575
2023-03-04T02:27:21.941Z,575.2
2023-03-04T02:28:24.620Z,575
2023-03-04T02:29:27.157Z,575
2023-03-04T02:30:29.695Z,574.9
2023-03-04T02:31:32.347Z,574.6
2023-03-04T02:32:35.019Z,575.4
2023-03-04T02:33:37.516Z,575.2
2023-03-04T02:34:40.025Z,574.9
2023-03-04T02:35:42.754Z,575.2
2023-03-04T02:36:44.988Z,575.5
2023-03-04T02:37:47.239Z,575.2
2023-03-04T02:38:50.030Z,575.4
2023-03-04T02:39:52.810Z,575.3
2023-03-04T02:40:55.043Z,574.6
2023-03-04T02:41:57.349Z,575
2023-03-04T02:42:59.896Z,575
2023-03-04T02:44:02.443Z,575.1
2023-03-04T02:45:04.953Z,575.4
2023-03-04T02:46:07.423Z,575.1
2023-03-04T02:47:09.703Z,575.1
2023-03-04T02:48:11.938Z,575
2023-03-04T02:49:14.466Z,574.9
2023-03-04T02:50:17.179Z,574.9
2023-03-04T02:51:19.689Z,574.9
2023-03-04T02:52:22.334Z,575
2023-03-04T02:53:24.614Z,574.6
2023-03-04T02:54:26.558Z,575.1
2023-03-04T02:55:29.128Z,575
2023-03-04T02:56:31.663Z,575
2023-03-04T02:57:33.665Z,575.2
2023-03-04T02:58:36.152Z,574.9
2023-03-04T02:59:38.764Z,575.2
2023-03-04T03:00:41.091Z,575.2
2023-03-04T03:01:43.616Z,575.4
2023-03-04T03:02:46.000Z,575.7
2023-03-04T03:03:48.501Z,575.4
2023-03-04T03:04:50.986Z,575.2
2023-03-04T03:05:53.236Z,575.7
2023-03-04T03:06:55.772Z,575.6
2023-03-04T03:07:58.287Z,575.7
2023-03-04T03:09:00.535Z,575.7
2023-03-04T03:10:02.768Z,575.6
2023-03-04T03:11:05.329Z,575.9
2023-03-04T03:12:07.870Z,575.3
2023-03-04T03:13:10.363Z,575.6
2023-03-04T03:14:12.621Z,575.3
2023-03-04T03:15:15.146Z,575.4
2023-03-04T03:16:17.885Z,575.1
2023-03-04T03:17:20.422Z,574.9
2023-03-04T03:18:22.658Z,575.2
2023-03-04T03:19:25.164Z,574.9
2023-03-04T03:20:27.675Z,574.7
2023-03-04T03:21:29.879Z,574.8
2023-03-04T03:22:32.385Z,574.3
2023-03-04T03:23:34.627Z,574.2
2023-03-04T03:24:37.204Z,574.5
2023-03-04T03:25:39.709Z,573.9
2023-03-04T03:26:42.409Z,574
2023-03-04T03:27:44.670Z,574.3
2023-03-04T03:28:47.216Z,573.8
2023-03-04T03:29:49.222Z,574.2
2023-03-04T03:30:51.436Z,574.3
2023-03-04T03:31:54.188Z,574
2023-03-04T03:32:56.442Z,574.3
2023-03-04T03:33:58.940Z,574.3
2023-03-04T03:35:01.160Z,574
2023-03-04T03:36:04.332Z,574.3
2023-03-04T03:37:06.575Z,574.5
2023-03-04T03:38:09.093Z,574.5
2023-03-04T03:39:11.340Z,574.5
2023-03-04T03:40:13.851Z,574.5
2023-03-04T03:41:16.376Z,574.5
2023-03-04T03:42:19.056Z,574.6
2023-03-04T03:43:21.622Z,574.9
2023-03-04T03:44:24.137Z,574.6
2023-03-04T03:45:26.357Z,574.7
2023-03-04T03:46:28.637Z,574.5
2023-03-04T03:47:30.900Z,574.7
2023-03-04T03:48:33.107Z,574.8
2023-03-04T03:49:35.668Z,574.7
2023-03-04T03:50:37.383Z,575
2023-03-04T03:51:39.565Z,574.9
2023-03-04T03:52:41.793Z,574.5
2023-03-04T03:53:44.386Z,574.7
2023-03-04T03:54:46.636Z,574.7
2023-03-04T03:55:48.593Z,574.5
2023-03-04T03:56:51.100Z,574.9
2023-03-04T03:57:53.392Z,574.9
2023-03-04T03:58:55.932Z,574.9
2023-03-04T03:59:58.452Z,574.7
2023-03-04T04:01:00.988Z,575.1
2023-03-04T04:02:04.263Z,574.8
2023-03-04T04:03:07.282Z,575.4
2023-03-04T04:04:09.793Z,575.2
2023-03-04T04:05:11.808Z,575
2023-03-04T04:06:14.033Z,575.2
2023-03-04T04:07:16.521Z,575.2
2023-03-04T04:08:19.110Z,575.1
2023-03-04T04:09:21.348Z,575
2023-03-04T04:10:23.882Z,575.2
2023-03-04T04:11:26.089Z,575.3
2023-03-04T04:12:28.286Z,575.6
2023-03-04T04:13:30.875Z,575.5
2023-03-04T04:14:33.409Z,574.9
2023-03-04T04:15:35.939Z,575
2023-03-04T04:16:38.829Z,575.1
2023-03-04T04:17:41.386Z,575.3
2023-03-04T04:18:43.873Z,575.3
2023-03-04T04:19:45.896Z,575
2023-03-04T04:20:48.312Z,575
2023-03-04T04:21:50.560Z,574.8
2023-03-04T04:22:52.782Z,574.9
2023-03-04T04:23:55.304Z,574.8
2023-03-04T04:24:57.330Z,575
2023-03-04T04:25:59.938Z,575.1
2023-03-04T04:27:02.448Z,575.1
2023-03-04T04:28:04.961Z,575
2023-03-04T04:29:07.383Z,575.2
2023-03-04T04:30:09.956Z,575.1
2023-03-04T04:31:12.801Z,575.2
2023-03-04T04:32:15.341Z,575.2
2023-03-04T04:33:18.100Z,575.3
2023-03-04T04:34:20.354Z,575
2023-03-04T04:35:23.163Z,575.1
2023-03-04T04:36:24.848Z,574.9
2023-03-04T04:37:27.341Z,574.9
2023-03-04T04:38:29.835Z,574.7
2023-03-04T04:39:32.318Z,574.3
2023-03-04T04:40:34.804Z,574.9
2023-03-04T04:41:37.326Z,575
2023-03-04T04:42:39.861Z,574.4
2023-03-04T04:43:42.052Z,574.4
2023-03-04T04:44:44.644Z,574.7
2023-03-04T04:45:47.434Z,575
2023-03-04T04:46:49.967Z,575
2023-03-04T04:47:52.205Z,574.8
2023-03-04T04:48:54.407Z,575.5
2023-03-04T04:49:56.936Z,575.4
2023-03-04T04:50:59.439Z,575.1
2023-03-04T04:52:01.694Z,575
2023-03-04T04:53:04.171Z,575
2023-03-04T04:54:06.667Z,575.4
2023-03-04T04:55:08.883Z,575.2
2023-03-04T04:56:11.435Z,575.5
2023-03-04T04:57:13.668Z,575.2
2023-03-04T04:58:16.244Z,575.2
2023-03-04T04:59:18.446Z,575
2023-03-04T05:00:20.783Z,575.1
2023-03-04T05:01:23.427Z,574.7
2023-03-04T05:02:25.928Z,575
2023-03-04T05:03:28.748Z,575.2
2023-03-04T05:04:31.278Z,574.6
2023-03-04T05:05:33.186Z,574.6
2023-03-04T05:06:35.701Z,574.6
2023-03-04T05:07:38.213Z,574.7
2023-03-04T05:08:40.740Z,574.9
2023-03-04T05:09:42.973Z,574.4
2023-03-04T05:10:45.520Z,574.4
2023-03-04T05:11:48.013Z,574.7
2023-03-04T05:12:50.568Z,574.3
2023-03-04T05:13:52.813Z,574.5
2023-03-04T05:14:55.389Z,574.5
2023-03-04T05:15:57.931Z,574.6
2023-03-04T05:17:00.318Z,574.6
2023-03-04T05:18:02.859Z,574.5
2023-03-04T05:19:05.366Z,574.4
2023-03-04T05:20:07.893Z,574.2
2023-03-04T05:21:10.419Z,574.6
2023-03-04T05:22:12.927Z,574.3
2023-03-04T05:23:15.132Z,574.6
2023-03-04T05:24:17.665Z,574.1
2023-03-04T05:25:19.883Z,574.6
2023-03-04T05:26:21.861Z,574.8
2023-03-04T05:27:24.086Z,574.7
2023-03-04T05:28:26.652Z,574.6
2023-03-04T05:29:29.215Z,574.3
2023-03-04T05:30:31.767Z,574.9
2023-03-04T05:31:34.323Z,574.8
2023-03-04T05:32:36.679Z,574.5
2023-03-04T05:33:38.942Z,574.8
2023-03-04T05:34:41.499Z,574.7
2023-03-04T05:35:44.263Z,574.4
2023-03-04T05:36:46.771Z,574.1
2023-03-04T05:37:49.000Z,574.1
2023-03-04T05:38:51.507Z,574.3
2023-03-04T05:39:53.998Z,574.1
2023-03-04T05:40:56.213Z,574.1
2023-03-04T05:41:58.461Z,574.5
2023-03-04T05:43:00.975Z,574.2
2023-03-04T05:44:03.503Z,574.2
2023-03-04T05:45:05.738Z,574.3
2023-03-04T05:46:08.223Z,574.1
2023-03-04T05:47:10.854Z,574.4
2023-03-04T05:48:13.114Z,574.3
2023-03-04T05:49:15.354Z,574.3
2023-03-04T05:50:17.563Z,574
2023-03-04T05:51:20.064Z,574.3
2023-03-04T05:52:22.299Z,574.1
2023-03-04T05:53:24.583Z,574.6
2023-03-04T05:54:26.565Z,574.4
2023-03-04T05:55:29.126Z,574.1
2023-03-04T05:56:31.361Z,573.5
2023-03-04T05:57:34.276Z,573.8
2023-03-04T05:58:36.798Z,573.8
2023-03-04T05:59:39.315Z,573.9
2023-03-04T06:00:41.524Z,573.7
2023-03-04T06:01:44.028Z,573.6
2023-03-04T06:02:46.928Z,573.4
2023-03-04T06:03:49.974Z,573.4
2023-03-04T06:04:52.244Z,573.1
2023-03-04T06:05:54.485Z,573.4
2023-03-04T06:06:57.014Z,573.1
2023-03-04T06:07:59.523Z,573.1
2023-03-04T06:09:01.896Z,572.9
2023-03-04T06:10:04.407Z,572.7
2023-03-04T06:11:06.406Z,572.6
2023-03-04T06:12:08.915Z,572.1
2023-03-04T06:13:11.451Z,572.3
2023-03-04T06:14:13.648Z,572.4
2023-03-04T06:15:16.324Z,572.7
2023-03-04T06:16:19.030Z,571.9
2023-03-04T06:17:21.568Z,572.2
2023-03-04T06:18:24.183Z,572.3
2023-03-04T06:19:26.489Z,572
2023-03-04T06:20:28.728Z,571.7
2023-03-04T06:21:31.282Z,571.7
2023-03-04T06:22:33.777Z,571.9
2023-03-04T06:23:36.293Z,571.8
2023-03-04T06:24:38.294Z,571.6
2023-03-04T06:25:40.530Z,571.5
2023-03-04T06:26:42.485Z,571.6
2023-03-04T06:27:44.784Z,571.3
2023-03-04T06:28:47.284Z,571.5
2023-03-04T06:29:49.257Z,571.4
2023-03-04T06:30:51.813Z,571.2
2023-03-04T06:31:54.709Z,571.1
2023-03-04T06:32:57.252Z,570.8
2023-03-04T06:33:59.555Z,571
2023-03-04T06:35:01.902Z,570.6
2023-03-04T06:36:04.418Z,570.8
2023-03-04T06:37:06.939Z,571
2023-03-04T06:38:09.203Z,570.7
2023-03-04T06:39:11.695Z,570.8
2023-03-04T06:40:13.924Z,570.6
2023-03-04T06:41:16.193Z,571.1
2023-03-04T06:42:18.462Z,571.1
2023-03-04T06:43:20.167Z,570.7
2023-03-04T06:44:22.383Z,570.7
2023-03-04T06:45:24.680Z,571.2
2023-03-04T06:47:33.111Z,570.6
2023-03-04T06:48:35.649Z,570.7
2023-03-04T06:49:38.244Z,571
2023-03-04T06:50:40.784Z,570.9
2023-03-04T06:51:43.053Z,570.8
2023-03-04T06:52:45.594Z,570.8
2023-03-04T06:53:48.144Z,570.7
2023-03-04T06:54:50.802Z,570.7
2023-03-04T06:55:53.045Z,570.8
2023-03-04T06:56:55.583Z,570.1
2023-03-04T06:57:58.071Z,570.4
2023-03-04T06:59:00.620Z,570.4
2023-03-04T07:00:03.169Z,570.4
2023-03-04T07:01:05.990Z,570.2
2023-03-04T07:02:08.539Z,569.7
2023-03-04T07:03:11.097Z,570.1
2023-03-04T07:04:13.688Z,569.6
2023-03-04T07:05:16.105Z,569.7
2023-03-04T07:06:18.086Z,569.8
2023-03-04T07:07:20.599Z,569.8
2023-03-04T07:08:23.829Z,569.7
2023-03-04T07:09:26.071Z,569.7
2023-03-04T07:10:28.572Z,569.8
2023-03-04T07:11:30.550Z,569.7
2023-03-04T07:12:32.784Z,569.8
2023-03-04T07:13:35.307Z,570
2023-03-04T07:14:37.903Z,569.9
2023-03-04T07:15:40.413Z,569.7
2023-03-04T07:16:42.616Z,569.3
2023-03-04T07:17:44.672Z,569.3
2023-03-04T07:18:46.635Z,569.5
2023-03-04T07:19:49.142Z,569.6
2023-03-04T07:20:51.461Z,569.7
2023-03-04T07:21:54.047Z,569.8
2023-03-04T07:22:56.555Z,569.4
2023-03-04T07:23:59.064Z,569.4
2023-03-04T07:25:01.387Z,569.6
2023-03-04T07:26:03.646Z,569.3
2023-03-04T07:27:05.594Z,569.3
2023-03-04T07:28:08.115Z,569.3
2023-03-04T07:29:10.375Z,568.9
2023-03-04T07:30:12.883Z,568.9
2023-03-04T07:31:15.946Z,568.6
2023-03-04T07:32:19.332Z,568.6
2023-03-04T07:33:21.687Z,568.6
2023-03-04T07:34:23.692Z,568.8
2023-03-04T07:35:26.090Z,568.6
2023-03-04T07:36:28.757Z,568.1
2023-03-04T07:37:31.324Z,568.2
2023-03-04T07:38:33.577Z,568
2023-03-04T07:39:35.818Z,568.1
2023-03-04T07:40:37.773Z,568.1
2023-03-04T07:41:40.049Z,567.8
2023-03-04T07:42:42.580Z,568
2023-03-04T07:43:45.104Z,567.8
2023-03-04T07:44:47.020Z,567.8
2023-03-04T07:45:49.277Z,567.7
2023-03-04T07:46:51.564Z,567.2
2023-03-04T07:47:54.139Z,567.1
2023-03-04T07:48:56.447Z,567
2023-03-04T07:49:58.776Z,566.5
2023-03-04T07:51:01.192Z,566.6
2023-03-04T07:52:03.753Z,566.5
2023-03-04T07:53:06.340Z,566.2
2023-03-04T07:54:08.871Z,566.4
2023-03-04T07:55:11.148Z,566.3
2023-03-04T07:56:13.699Z,566
2023-03-04T07:57:15.902Z,566.2
2023-03-04T07:58:18.405Z,565.8
2023-03-04T07:59:20.960Z,565.8
2023-03-04T08:00:23.261Z,566.1
2023-03-04T08:01:25.258Z,565.4
2023-03-04T08:02:27.730Z,565.3
2023-03-04T08:03:30.303Z,565.1
2023-03-04T08:04:33.232Z,565.2
2023-03-04T08:05:35.500Z,564.9
2023-03-04T08:06:38.000Z,565.3
2023-03-04T08:07:40.290Z,565.2
2023-03-04T08:08:42.820Z,565.4
2023-03-04T08:09:45.109Z,565.2
2023-03-04T08:10:47.623Z,565.4
2023-03-04T08:11:49.837Z,565.1
2023-03-04T08:12:52.075Z,565.2
2023-03-04T08:13:54.713Z,565.1
2023-03-04T08:14:57.209Z,565.3
2023-03-04T08:15:59.899Z,565
2023-03-04T08:17:02.133Z,565.5
2023-03-04T08:18:04.673Z,565.5
2023-03-04T08:19:07.233Z,565.2
2023-03-04T08:20:09.797Z,565.2
2023-03-04T08:21:12.110Z,565
2023-03-04T08:22:14.623Z,565
2023-03-04T08:23:16.925Z,564.9
2023-03-04T08:24:19.444Z,565.1
2023-03-04T08:25:21.945Z,564.7
2023-03-04T08:26:24.182Z,565.3
2023-03-04T08:27:26.392Z,565.2
2023-03-04T08:28:28.647Z,565.4
2023-03-04T08:29:31.165Z,565.2
2023-03-04T08:30:33.692Z,565.3
2023-03-04T08:31:36.896Z,565.6
2023-03-04T08:32:39.915Z,565.6
2023-03-04T08:33:42.461Z,565.6
2023-03-04T08:34:44.972Z,565.8
2023-03-04T08:35:47.561Z,565.7
2023-03-04T08:36:49.843Z,565.6
2023-03-04T08:37:51.251Z,565.4
2023-03-04T08:38:53.833Z,565.7
2023-03-04T08:39:56.122Z,565.5
2023-03-04T08:40:58.652Z,565.3
2023-03-04T08:42:00.924Z,565.1
2023-03-04T08:43:03.172Z,565.4
2023-03-04T08:44:05.432Z,565.2
2023-03-04T08:45:07.962Z,565.2
2023-03-04T08:46:10.832Z,565.3
2023-03-04T08:47:13.095Z,565.6
2023-03-04T08:48:15.600Z,565.3
2023-03-04T08:49:18.126Z,565.4
2023-03-04T08:50:23.636Z,565.2
2023-03-04T08:51:26.204Z,565.6
2023-03-04T08:52:27.863Z,565.6
2023-03-04T08:53:30.425Z,565.4
2023-03-04T08:54:32.987Z,565.2
2023-03-04T08:55:35.550Z,565.6
2023-03-04T08:56:37.480Z,565.7
2023-03-04T08:57:39.696Z,565.2
2023-03-04T08:58:42.203Z,565.4
2023-03-04T08:59:44.704Z,565.3
2023-03-04T09:00:47.202Z,565.4
2023-03-04T09:01:49.679Z,565.4
2023-03-04T09:02:51.645Z,565.1
2023-03-04T09:03:54.777Z,565.1
2023-03-04T09:04:57.036Z,565.1
2023-03-04T09:05:59.310Z,565
2023-03-04T09:07:01.377Z,565.3
2023-03-04T09:08:03.894Z,565.2
2023-03-04T09:09:06.424Z,565.5
2023-03-04T09:10:09.094Z,565.4
2023-03-04T09:11:11.649Z,565.8
2023-03-04T09:12:13.609Z,565.2
2023-03-04T09:13:15.852Z,565.6
2023-03-04T09:14:18.411Z,565.9
2023-03-04T09:15:20.410Z,565.8
2023-03-04T09:16:23.089Z,565.7
2023-03-04T09:17:25.338Z,565.9
2023-03-04T09:18:27.751Z,566.3
2023-03-04T09:19:30.291Z,565.9
2023-03-04T09:20:32.598Z,566.2
2023-03-04T09:21:35.167Z,566.4
2023-03-04T09:22:37.798Z,566.2
2023-03-04T09:23:39.772Z,566.4
2023-03-04T09:24:42.018Z,566
2023-03-04T09:25:44.306Z,566.3
2023-03-04T09:26:46.902Z,566.9
2023-03-04T09:27:49.127Z,566.5
2023-03-04T09:28:51.622Z,566.9
2023-03-04T09:29:54.135Z,566.9
2023-03-04T09:30:56.356Z,566.8
2023-03-04T09:31:59.084Z,566.8
2023-03-04T09:33:01.614Z,566.8
2023-03-04T09:34:04.153Z,567.3
2023-03-04T09:35:06.472Z,567
2023-03-04T09:36:09.039Z,567
2023-03-04T09:37:11.617Z,567
2023-03-04T09:38:14.202Z,566.6
2023-03-04T09:39:16.737Z,566.6
2023-03-04T09:40:19.275Z,566.4
2023-03-04T09:41:21.987Z,566.2
2023-03-04T09:42:24.265Z,566.2
2023-03-04T09:43:26.490Z,566.3
2023-03-04T09:44:28.751Z,566.2
2023-03-04T09:45:30.954Z,566.4
2023-03-04T09:46:33.858Z,566.6
2023-03-04T09:47:36.141Z,565.9
2023-03-04T09:48:38.638Z,566.1
2023-03-04T09:49:40.860Z,565.9
2023-03-04T09:50:43.394Z,566
2023-03-04T09:51:45.929Z,566.4
2023-03-04T09:52:48.456Z,566.3
2023-03-04T09:53:50.968Z,566.2
2023-03-04T09:54:53.235Z,566.7
2023-03-04T09:55:55.751Z,566.5
2023-03-04T09:56:58.335Z,566.6
2023-03-04T09:58:00.663Z,566.6
2023-03-04T09:59:02.632Z,566.8
2023-03-04T10:00:05.235Z,566.9
2023-03-04T10:01:07.756Z,567
2023-03-04T10:02:09.966Z,567.2
2023-03-04T10:03:12.871Z,567
2023-03-04T10:04:15.100Z,566.9
2023-03-04T10:05:17.327Z,567.4
2023-03-04T10:06:19.822Z,567.1
2023-03-04T10:07:22.360Z,567.2
2023-03-04T10:08:24.851Z,567.6
2023-03-04T10:09:27.448Z,567.5
2023-03-04T10:10:29.954Z,567.8
2023-03-04T10:11:32.196Z,567.8
2023-03-04T10:12:34.201Z,567.7
2023-03-04T10:13:36.429Z,567.8
2023-03-04T10:14:38.702Z,567.7
2023-03-04T10:15:40.140Z,567.8
2023-03-04T10:16:42.632Z,567.6
2023-03-04T10:17:44.867Z,567.9
2023-03-04T10:18:47.092Z,568.2
2023-03-04T10:19:49.318Z,568.9
2023-03-04T10:20:51.562Z,568.5
2023-03-04T10:21:53.804Z,568.6
2023-03-04T10:22:55.769Z,569
2023-03-04T10:25:03.312Z,569.1
2023-03-04T10:26:05.532Z,569
2023-03-04T10:27:07.818Z,568.9
2023-03-04T10:28:10.395Z,569.2
2023-03-04T10:29:12.659Z,569.4
2023-03-04T10:30:15.177Z,569
2023-03-04T10:31:17.732Z,569.7
2023-03-04T10:32:20.070Z,569.8
2023-03-04T10:33:22.672Z,569.6
2023-03-04T10:34:24.917Z,569.6
2023-03-04T10:35:27.481Z,570
2023-03-04T10:36:29.536Z,569.8
2023-03-04T10:37:32.057Z,569.6
2023-03-04T10:38:34.610Z,569.6
2023-03-04T10:39:36.832Z,569.7
2023-03-04T10:40:39.368Z,569.6
2023-03-04T10:41:42.082Z,569.9
2023-03-04T10:42:45.275Z,570
2023-03-04T10:43:47.743Z,570.4
2023-03-04T10:44:50.278Z,570.2
2023-03-04T10:45:53.245Z,570.6
2023-03-04T10:46:55.226Z,570.6
2023-03-04T10:47:57.471Z,570.8
2023-03-04T10:49:00.034Z,571
2023-03-04T10:50:02.673Z,571
2023-03-04T10:51:04.893Z,571.1
2023-03-04T10:52:07.398Z,570.6
2023-03-04T10:53:09.652Z,570.7
2023-03-04T10:54:11.893Z,570.9
2023-03-04T10:55:13.860Z,571.1
2023-03-04T10:56:16.108Z,570.6
2023-03-04T10:57:18.358Z,570.8
2023-03-04T10:58:20.598Z,570.7
2023-03-04T10:59:22.927Z,570.9
2023-03-04T11:00:25.464Z,571.6
2023-03-04T11:01:27.958Z,571.3
2023-03-04T11:02:30.579Z,571.8
2023-03-04T11:03:33.408Z,571.7
2023-03-04T11:04:35.427Z,571.2
2023-03-04T11:05:37.675Z,571.6
2023-03-04T11:06:40.177Z,571.3
2023-03-04T11:08:47.670Z,571.7
2023-03-04T11:09:49.879Z,571.8
2023-03-04T11:10:52.396Z,571.5
2023-03-04T11:11:54.943Z,571.6
2023-03-04T11:12:56.906Z,571.3
2023-03-04T11:13:59.447Z,571.3
2023-03-04T11:15:02.079Z,571.5
2023-03-04T11:16:04.654Z,571.7
2023-03-04T11:17:06.882Z,571.6
2023-03-04T11:18:09.396Z,572.1
2023-03-04T11:19:11.965Z,572.1
2023-03-04T11:20:14.191Z,572.2
2023-03-04T11:21:16.432Z,571.9
2023-03-04T11:22:18.672Z,571.7
2023-03-04T11:23:21.147Z,571.9
2023-03-04T11:25:28.649Z,571.8
2023-03-04T11:26:30.855Z,571.9
2023-03-04T11:27:33.379Z,571.8
2023-03-04T11:28:35.935Z,571.8
2023-03-04T11:29:38.225Z,571.6
2023-03-04T11:30:40.534Z,571.7
2023-03-04T11:31:43.355Z,571.7
2023-03-04T11:32:46.155Z,571.9
2023-03-04T11:33:48.720Z,571.2
2023-03-04T11:34:51.261Z,571.9
2023-03-04T11:35:54.236Z,572.5
2023-03-04T11:36:56.200Z,571.8
2023-03-04T11:37:58.436Z,571.8
2023-03-04T11:39:00.420Z,572.2
2023-03-04T11:40:02.936Z,572.1
2023-03-04T11:41:04.950Z,572.4
2023-03-04T11:42:06.972Z,572.6
2023-03-04T11:43:09.229Z,572.4
2023-03-04T11:44:11.490Z,572.6
2023-03-04T11:46:19.060Z,572.5
2023-03-04T11:47:21.597Z,572.8
2023-03-04T11:48:23.858Z,572.7
2023-03-04T11:49:25.814Z,573.4
2023-03-04T11:50:28.348Z,572.8
2023-03-04T11:51:30.324Z,573.1
2023-03-04T11:52:32.961Z,573.4
2023-03-04T11:53:35.435Z,573.3
2023-03-04T11:54:37.388Z,573.2
2023-03-04T11:55:39.931Z,573.1
2023-03-04T11:56:42.204Z,573.8
2023-03-04T11:57:44.726Z,574
2023-03-04T11:58:47.258Z,573.6
2023-03-04T11:59:49.210Z,573.8
2023-03-04T12:00:51.697Z,573.8
2023-03-04T12:01:54.331Z,574
2023-03-04T12:02:56.859Z,573.8
2023-03-04T12:04:00.240Z,574.1
2023-03-04T12:05:03.260Z,574.1
2023-03-04T12:06:05.761Z,573.5
2023-03-04T12:07:08.301Z,574
2023-03-04T12:08:10.282Z,574.4
2023-03-04T12:09:12.799Z,574.2
2023-03-04T12:10:15.334Z,574.7
2023-03-04T12:11:20.436Z,574.9
2023-03-04T12:12:22.192Z,575.2
2023-03-04T12:13:24.177Z,574.5
2023-03-04T12:14:26.747Z,574.3
2023-03-04T12:15:30.340Z,574.1
2023-03-04T12:16:32.853Z,575.1
2023-03-04T12:17:35.152Z,574.7
2023-03-04T12:18:37.398Z,575.1
2023-03-04T12:19:39.930Z,574.6
2023-03-04T12:20:41.623Z,575.4
2023-03-04T12:21:44.177Z,575.7
2023-03-04T12:22:46.421Z,576
2023-03-04T12:23:48.662Z,576.2
2023-03-04T12:24:51.210Z,575.9
2023-03-04T12:25:53.857Z,576.3
2023-03-04T12:26:56.117Z,575.9
2023-03-04T12:27:58.331Z,576.1
2023-03-04T12:29:00.846Z,575.9
2023-03-04T12:30:03.480Z,576.5
2023-03-04T12:31:06.021Z,576
2023-03-04T12:32:09.149Z,576.7
2023-03-04T12:33:11.873Z,576.8
2023-03-04T12:34:14.132Z,577.1
2023-03-04T12:35:17.122Z,577.1
2023-03-04T12:36:20.892Z,577.6
2023-03-04T12:37:23.445Z,577.8
2023-03-04T12:38:25.966Z,577.4
2023-03-04T12:39:28.491Z,577.8
2023-03-04T12:40:30.988Z,578
2023-03-04T12:41:33.509Z,578.3
2023-03-04T12:42:36.055Z,578.5
2023-03-04T12:43:38.276Z,579.1
2023-03-04T12:44:40.507Z,578.9
2023-03-04T12:45:43.048Z,578.7
2023-03-04T12:46:45.927Z,579.3
2023-03-04T12:47:48.223Z,579
2023-03-04T12:48:50.797Z,579.5
2023-03-04T12:49:53.449Z,579.8
2023-03-04T12:50:55.938Z,579.7
2023-03-04T12:51:58.166Z,579.1
2023-03-04T12:53:00.679Z,579.7
2023-03-04T12:54:02.921Z,579.4
2023-03-04T12:55:05.192Z,579.5
2023-03-04T12:57:12.387Z,580
2023-03-04T12:58:14.631Z,580
2023-03-04T12:59:17.135Z,579.8
2023-03-04T13:00:19.701Z,579.4
2023-03-04T13:01:22.233Z,579.9
2023-03-04T13:02:24.912Z,580.2
2023-03-04T13:03:28.108Z,579.9
2023-03-04T13:04:30.732Z,580.5
2023-03-04T13:05:32.982Z,580.5
2023-03-04T13:06:35.192Z,580.5
2023-03-04T13:07:37.139Z,580.9
2023-03-04T13:08:39.655Z,580.7
2023-03-04T13:09:42.209Z,580.8
2023-03-04T13:10:44.446Z,580.7
2023-03-04T13:11:46.959Z,581.4
2023-03-04T13:12:49.199Z,581.3
2023-03-04T13:13:51.774Z,581.6
2023-03-04T13:14:54.720Z,582.1
2023-03-04T13:15:58.347Z,581.7
2023-03-04T13:17:00.933Z,581.6
2023-03-04T13:18:03.200Z,581.6
2023-03-04T13:19:05.439Z,581.5
2023-03-04T13:20:08.046Z,581
2023-03-04T13:21:10.563Z,581.6
2023-03-04T13:22:12.540Z,581.6
2023-03-04T13:23:14.795Z,581.4
2023-03-04T13:24:17.297Z,581.2
2023-03-04T13:25:19.810Z,581.4
2023-03-04T13:26:21.876Z,581
2023-03-04T13:27:24.139Z,581.5
2023-03-04T13:28:26.163Z,581.8
2023-03-04T13:29:28.738Z,581
2023-03-04T13:30:30.967Z,581.9
2023-03-04T13:31:33.895Z,581.9
2023-03-04T13:32:36.278Z,581.9
2023-03-04T13:33:38.831Z,581.8
2023-03-04T13:34:41.367Z,581.8
2023-03-04T13:35:44.026Z,582
2023-03-04T13:36:46.321Z,582.2
2023-03-04T13:37:48.830Z,582.2